createdAt,value
2022-10-21T00:00:18.869Z,10.50
2022-10-21T00:02:46.137Z,10.50
2022-10-21T00:05:13.153Z,10.40
2022-10-21T00:07:40.596Z,10.50
2022-10-21T00:10:08.720Z,10.50
2022-10-21T00:12:36.780Z,10.50
2022-10-21T00:15:08.423Z,10.50
2022-10-21T00:17:37.651Z,10.50
2022-10-21T00:20:06.099Z,10.40
2022-10-21T00:22:32.834Z,10.30
2022-10-21T00:24:59.570Z,10.30
2022-10-21T00:27:26.326Z,10.30
2022-10-21T00:29:53.787Z,10.30
2022-10-21T00:32:20.575Z,10.20
2022-10-21T00:34:48.495Z,10.10
2022-10-21T00:37:15.773Z,10.10
2022-10-21T00:39:42.474Z,10.20
2022-10-21T00:42:18.950Z,10.20
2022-10-21T00:45:06.302Z,10.20
2022-10-21T00:47:53.845Z,10.20
2022-10-21T00:50:36.437Z,10.20
2022-10-21T00:53:10.330Z,10.20
2022-10-21T00:55:41.064Z,10.10
2022-10-21T00:58:08.544Z,10.10
2022-10-21T01:00:35.397Z,10.10
2022-10-21T01:03:02.264Z,10.10
2022-10-21T01:05:31.300Z,10.20
2022-10-21T01:07:58.635Z,10.10
2022-10-21T01:10:25.344Z,10.10
2022-10-21T01:13:16.733Z,10.10
2022-10-21T01:15:58.819Z,10.20
2022-10-21T01:18:47.373Z,10.10
2022-10-21T01:21:30.039Z,10.00
2022-10-21T01:24:16.175Z,9.80
2022-10-21T01:26:51.896Z,9.70
2022-10-21T01:29:32.127Z,9.70
2022-10-21T01:32:20.234Z,9.80
2022-10-21T01:35:16.004Z,9.90
2022-10-21T01:37:52.027Z,9.90
2022-10-21T01:40:24.260Z,9.90
2022-10-21T01:42:56.678Z,10.00
2022-10-21T01:45:26.470Z,9.90
2022-10-21T01:47:57.061Z,9.90
2022-10-21T01:50:30.070Z,10.00
2022-10-21T01:53:01.861Z,10.00
2022-10-21T01:55:32.003Z,10.10
2022-10-21T01:58:14.792Z,10.00
2022-10-21T02:00:43.530Z,10.00
2022-10-21T02:03:13.732Z,10.00
2022-10-21T02:05:40.749Z,10.00
2022-10-21T02:08:08.088Z,10.10
2022-10-21T02:10:42.415Z,10.00
2022-10-21T02:13:13.255Z,10.00
2022-10-21T02:15:42.076Z,10.00
2022-10-21T02:18:18.957Z,10.00
2022-10-21T02:20:48.646Z,10.00
2022-10-21T02:23:19.277Z,9.90
2022-10-21T02:25:49.357Z,9.90
2022-10-21T02:28:16.863Z,9.90
2022-10-21T02:31:03.741Z,9.80
2022-10-21T02:33:45.141Z,9.90
2022-10-21T02:36:17.045Z,9.80
2022-10-21T02:38:58.284Z,9.80
2022-10-21T02:41:28.300Z,9.70
2022-10-21T02:44:03.360Z,9.80
2022-10-21T02:46:43.099Z,9.80
2022-10-21T02:49:10.180Z,9.80
2022-10-21T02:51:37.053Z,9.80
2022-10-21T02:54:03.826Z,9.80
2022-10-21T02:56:30.778Z,9.90
2022-10-21T02:58:57.775Z,9.90
2022-10-21T03:01:24.654Z,9.80
2022-10-21T03:03:51.461Z,9.80
2022-10-21T03:06:18.373Z,9.90
2022-10-21T03:08:45.479Z,9.90
2022-10-21T03:11:12.284Z,9.90
2022-10-21T03:13:39.034Z,9.90
2022-10-21T03:16:06.120Z,9.90
2022-10-21T03:18:32.864Z,9.80
2022-10-21T03:20:59.611Z,9.70
2022-10-21T03:23:26.363Z,9.60
2022-10-21T03:25:53.452Z,9.70
2022-10-21T03:28:20.271Z,9.70
2022-10-21T03:30:47.092Z,9.70
2022-10-21T03:33:13.852Z,9.80
2022-10-21T03:35:41.567Z,9.70
2022-10-21T03:38:08.341Z,9.60
2022-10-21T03:40:35.095Z,9.70
2022-10-21T03:43:01.821Z,9.70
2022-10-21T03:45:28.577Z,9.70
2022-10-21T03:47:55.427Z,9.80
2022-10-21T03:50:26.103Z,9.80
2022-10-21T03:52:54.652Z,9.80
2022-10-21T03:55:24.215Z,9.70
2022-10-21T03:57:52.639Z,9.70
2022-10-21T04:00:20.305Z,9.70
2022-10-21T04:02:47.120Z,9.60
2022-10-21T04:05:14.752Z,9.60
2022-10-21T04:07:42.306Z,9.50
2022-10-21T04:10:09.910Z,9.50
2022-10-21T04:12:37.745Z,9.60
2022-10-21T04:15:06.738Z,9.40
2022-10-21T04:17:34.047Z,9.40
2022-10-21T04:20:00.810Z,9.50
2022-10-21T04:22:27.525Z,9.50
2022-10-21T04:24:54.725Z,9.50
2022-10-21T04:27:21.448Z,9.40
2022-10-21T04:29:48.543Z,9.50
2022-10-21T04:32:15.289Z,9.50
2022-10-21T04:34:42.048Z,9.50
2022-10-21T04:37:08.806Z,9.50
2022-10-21T04:39:35.493Z,9.40
2022-10-21T04:42:02.220Z,9.20
2022-10-21T04:44:28.991Z,9.20
2022-10-21T04:46:55.756Z,9.30
2022-10-21T04:49:22.637Z,9.30
2022-10-21T04:51:49.436Z,9.40
2022-10-21T04:54:16.230Z,9.40
2022-10-21T04:56:43.353Z,9.40
2022-10-21T04:59:10.708Z,9.40
2022-10-21T05:01:37.898Z,9.50
2022-10-21T05:04:04.787Z,9.40
2022-10-21T05:06:32.007Z,9.30
2022-10-21T05:08:58.893Z,9.40
2022-10-21T05:11:25.731Z,9.50
2022-10-21T05:13:52.470Z,9.50
2022-10-21T05:16:19.669Z,9.50
2022-10-21T05:18:46.436Z,9.50
2022-10-21T05:21:13.277Z,9.60
2022-10-21T05:23:40.023Z,9.70
2022-10-21T05:26:07.210Z,9.60
2022-10-21T05:28:34.075Z,9.60
2022-10-21T05:31:01.229Z,9.60
2022-10-21T05:33:28.529Z,9.60
2022-10-21T05:35:57.014Z,9.70
2022-10-21T05:38:24.291Z,9.70
2022-10-21T05:40:51.084Z,9.80
2022-10-21T05:43:17.805Z,9.90
2022-10-21T05:45:44.596Z,9.80
2022-10-21T05:48:14.597Z,9.80
2022-10-21T05:50:45.796Z,9.70
2022-10-21T05:53:13.642Z,9.70
2022-10-21T05:55:40.532Z,9.70
2022-10-21T05:58:07.861Z,9.70
2022-10-21T06:00:35.315Z,9.80
2022-10-21T06:03:02.213Z,9.70
2022-10-21T06:05:28.969Z,9.70
2022-10-21T06:07:55.688Z,9.80
2022-10-21T06:10:26.679Z,9.80
2022-10-21T06:12:56.277Z,9.80
2022-10-21T06:15:23.113Z,10.00
2022-10-21T06:17:51.762Z,10.10
2022-10-21T06:20:18.703Z,10.20
2022-10-21T06:22:45.517Z,10.30
2022-10-21T06:25:12.677Z,10.30
2022-10-21T06:27:40.199Z,10.40
2022-10-21T06:30:07.831Z,10.40
2022-10-21T06:32:35.695Z,10.50
2022-10-21T06:35:02.622Z,10.50
2022-10-21T06:37:29.565Z,10.70
2022-10-21T06:39:56.917Z,10.80
2022-10-21T06:42:23.646Z,11.00
2022-10-21T06:44:50.427Z,11.10
2022-10-21T06:47:17.559Z,11.20
2022-10-21T06:49:44.318Z,11.30
2022-10-21T06:52:11.120Z,11.30
2022-10-21T06:54:37.948Z,11.40
2022-10-21T06:57:05.081Z,11.60
2022-10-21T06:59:32.272Z,11.70
2022-10-21T07:02:00.950Z,11.70
2022-10-21T07:04:29.244Z,11.70
2022-10-21T07:06:56.412Z,11.80
2022-10-21T07:09:23.272Z,11.80
2022-10-21T07:11:50.498Z,11.80
2022-10-21T07:14:17.608Z,11.90
2022-10-21T07:16:44.730Z,12.10
2022-10-21T07:19:11.737Z,12.10
2022-10-21T07:21:38.554Z,12.10
2022-10-21T07:24:05.685Z,12.30
2022-10-21T07:26:33.919Z,12.20
2022-10-21T07:29:01.521Z,12.30
2022-10-21T07:31:31.723Z,12.50
2022-10-21T07:33:59.987Z,12.60
2022-10-21T07:36:29.508Z,12.60
2022-10-21T07:39:00.196Z,12.80
2022-10-21T07:41:34.656Z,13.00
2022-10-21T07:44:02.239Z,13.20
2022-10-21T07:46:29.400Z,13.40
2022-10-21T07:48:57.185Z,13.50
2022-10-21T07:51:28.490Z,13.70
2022-10-21T07:53:57.024Z,13.80
2022-10-21T07:56:27.108Z,13.90
2022-10-21T07:58:54.117Z,14.00
2022-10-21T08:01:21.284Z,14.20
2022-10-21T08:03:48.137Z,14.30
2022-10-21T08:06:17.632Z,14.50
2022-10-21T08:08:45.831Z,14.60
2022-10-21T08:11:21.521Z,14.80
2022-10-21T08:13:48.381Z,15.20
2022-10-21T08:16:15.645Z,15.30
2022-10-21T08:18:42.393Z,15.40
2022-10-21T08:21:09.262Z,15.60
2022-10-21T08:23:36.425Z,15.90
2022-10-21T08:26:04.162Z,16.20
2022-10-21T08:28:31.615Z,16.60
2022-10-21T08:31:10.645Z,16.80
2022-10-21T08:33:38.470Z,17.00
2022-10-21T08:36:07.147Z,17.30
2022-10-21T08:38:33.969Z,17.20
2022-10-21T08:41:01.564Z,17.30
2022-10-21T08:43:34.381Z,17.50
2022-10-21T08:46:19.073Z,17.80
2022-10-21T08:48:51.417Z,18.20
2022-10-21T08:51:51.167Z,18.40
2022-10-21T08:54:29.813Z,18.50
2022-10-21T08:57:00.371Z,18.50
2022-10-21T08:59:27.684Z,18.60
2022-10-21T09:02:00.840Z,18.60
2022-10-21T09:04:40.566Z,18.70
2022-10-21T09:07:14.394Z,18.80
2022-10-21T09:09:52.083Z,18.80
2022-10-21T09:12:37.955Z,18.90
2022-10-21T09:15:25.432Z,19.00
2022-10-21T09:17:58.242Z,19.10
2022-10-21T09:21:05.663Z,19.20
2022-10-21T09:23:52.200Z,19.30
2022-10-21T09:26:30.172Z,19.30
2022-10-21T09:28:57.605Z,19.30
2022-10-21T09:31:24.743Z,19.30
2022-10-21T09:33:59.644Z,19.30
2022-10-21T09:36:34.127Z,19.40
2022-10-21T09:39:14.873Z,19.50
2022-10-21T09:41:49.701Z,19.50
2022-10-21T09:44:20.869Z,19.50
2022-10-21T09:46:50.067Z,19.60
2022-10-21T09:49:54.729Z,19.70
2022-10-21T09:52:20.914Z,19.80
2022-10-21T09:54:48.076Z,19.90
2022-10-21T09:57:17.213Z,19.90
2022-10-21T09:59:52.735Z,19.90
2022-10-21T10:02:30.269Z,20.10
2022-10-21T10:04:57.687Z,20.20
2022-10-21T10:07:37.216Z,20.40
2022-10-21T10:10:24.897Z,20.60
2022-10-21T10:12:59.261Z,21.00
2022-10-21T10:15:35.313Z,21.30
2022-10-21T10:18:03.450Z,21.50
2022-10-21T10:20:30.629Z,21.70
2022-10-21T10:23:00.397Z,21.80
2022-10-21T10:25:34.838Z,21.80
2022-10-21T10:28:18.441Z,21.90
2022-10-21T10:30:45.279Z,22.10
2022-10-21T10:33:34.539Z,22.30
2022-10-21T10:36:09.378Z,22.70
2022-10-21T10:38:51.918Z,23.30
2022-10-21T10:41:19.429Z,23.70
2022-10-21T10:43:51.015Z,24.10
2022-10-21T10:46:31.771Z,24.80
2022-10-21T10:49:16.873Z,26.00
2022-10-21T10:51:48.027Z,27.10
2022-10-21T10:54:28.768Z,28.40
2022-10-21T10:57:02.387Z,29.80
2022-10-21T10:59:43.341Z,30.80
2022-10-21T11:02:10.402Z,31.70
2022-10-21T11:05:00.026Z,32.20
2022-10-21T11:07:48.353Z,32.40
2022-10-21T11:10:35.026Z,31.90
2022-10-21T11:13:04.406Z,31.60
2022-10-21T11:15:38.400Z,31.20
2022-10-21T11:18:33.138Z,30.40
2022-10-21T11:21:26.755Z,29.50
2022-10-21T11:24:05.213Z,28.10
2022-10-21T11:26:47.120Z,26.80
2022-10-21T11:29:36.297Z,25.60
2022-10-21T11:32:15.500Z,24.90
2022-10-21T11:34:47.970Z,24.10
2022-10-21T11:37:39.653Z,23.50
2022-10-21T11:40:31.356Z,23.10
2022-10-21T11:43:22.583Z,22.70
2022-10-21T11:46:04.079Z,22.30
2022-10-21T11:49:06.295Z,21.90
2022-10-21T11:51:48.377Z,21.70
2022-10-21T11:54:57.513Z,21.40
2022-10-21T11:57:56.822Z,21.30
2022-10-21T12:00:26.386Z,21.10
2022-10-21T12:03:07.656Z,20.90
2022-10-21T12:05:37.504Z,20.90
2022-10-21T12:08:14.442Z,21.00
2022-10-21T12:10:54.588Z,21.10
2022-10-21T12:13:32.780Z,21.10
2022-10-21T12:16:16.142Z,21.30
2022-10-21T12:18:55.679Z,21.20
2022-10-21T12:21:27.726Z,21.20
2022-10-21T12:24:04.173Z,21.20
2022-10-21T12:27:06.148Z,21.10
2022-10-21T12:29:59.631Z,21.00
2022-10-21T12:32:40.429Z,20.90
2022-10-21T12:35:13.404Z,20.80
2022-10-21T12:38:05.545Z,20.70
2022-10-21T12:40:33.127Z,20.60
2022-10-21T12:43:03.266Z,20.60
2022-10-21T12:45:36.602Z,20.60
2022-10-21T12:48:44.460Z,20.60
2022-10-21T12:51:28.063Z,20.50
2022-10-21T12:54:02.022Z,20.50
2022-10-21T12:56:35.167Z,20.50
2022-10-21T12:59:06.859Z,20.40
2022-10-21T13:01:33.525Z,20.40
2022-10-21T13:04:00.431Z,20.30
2022-10-21T13:06:53.627Z,20.40
2022-10-21T13:09:56.916Z,20.50
2022-10-21T13:12:23.775Z,20.50
2022-10-21T13:14:51.531Z,20.60
2022-10-21T13:17:20.962Z,20.80
2022-10-21T13:19:52.289Z,21.10
2022-10-21T13:22:34.523Z,21.70
2022-10-21T13:25:16.293Z,22.60
2022-10-21T13:27:47.693Z,23.20
2022-10-21T13:30:33.445Z,23.70
2022-10-21T13:33:04.347Z,24.10
2022-10-21T13:35:53.980Z,24.10
2022-10-21T13:38:26.452Z,24.20
2022-10-21T13:40:54.806Z,24.20
2022-10-21T13:43:28.751Z,24.20
2022-10-21T13:46:27.201Z,24.40
2022-10-21T13:48:54.438Z,24.60
2022-10-21T13:51:21.209Z,24.80
2022-10-21T13:53:49.014Z,25.00
2022-10-21T13:56:23.245Z,25.10
2022-10-21T13:58:50.097Z,25.20
2022-10-21T14:01:25.378Z,25.20
2022-10-21T14:03:54.967Z,25.20
2022-10-21T14:06:35.923Z,25.00
2022-10-21T14:09:07.975Z,24.90
2022-10-21T14:11:42.163Z,24.60
2022-10-21T14:14:13.428Z,24.30
2022-10-21T14:16:49.305Z,24.10
2022-10-21T14:19:24.395Z,24.10
2022-10-21T14:21:54.677Z,23.90
2022-10-21T14:24:37.442Z,23.90
2022-10-21T14:27:05.577Z,23.80
2022-10-21T14:29:35.798Z,23.60
2022-10-21T14:32:04.245Z,23.30
2022-10-21T14:34:35.950Z,22.90
2022-10-21T14:37:19.802Z,22.50
2022-10-21T14:39:47.089Z,22.30
2022-10-21T14:42:20.252Z,22.00
2022-10-21T14:44:50.803Z,21.80
2022-10-21T14:47:26.024Z,21.50
2022-10-21T14:49:55.729Z,21.30
2022-10-21T14:52:35.617Z,21.00
2022-10-21T14:55:09.542Z,20.90
2022-10-21T14:57:39.535Z,20.90
2022-10-21T15:00:10.217Z,20.70
2022-10-21T15:02:38.817Z,20.50
2022-10-21T15:05:26.345Z,20.40
2022-10-21T15:08:22.758Z,20.30
2022-10-21T15:11:03.859Z,20.10
2022-10-21T15:13:32.349Z,20.00
2022-10-21T15:16:01.064Z,19.90
2022-10-21T15:18:43.191Z,19.70
2022-10-21T15:21:35.593Z,19.60
2022-10-21T15:24:03.812Z,19.40
2022-10-21T15:26:33.171Z,19.30
2022-10-21T15:29:00.401Z,19.20
2022-10-21T15:31:29.063Z,19.10
2022-10-21T15:33:57.431Z,19.00
2022-10-21T15:36:24.801Z,19.00
2022-10-21T15:38:51.780Z,18.90
2022-10-21T15:41:29.269Z,18.80
2022-10-21T15:43:59.646Z,18.70
2022-10-21T15:46:27.499Z,18.50
2022-10-21T15:48:54.401Z,18.40
2022-10-21T15:51:21.156Z,18.40
2022-10-21T15:53:48.248Z,18.40
2022-10-21T15:56:17.458Z,18.20
2022-10-21T15:58:44.704Z,18.10
2022-10-21T16:01:16.906Z,18.00
2022-10-21T16:03:44.997Z,17.90
2022-10-21T16:06:16.858Z,19.10
2022-10-21T16:08:43.805Z,18.90
2022-10-21T16:11:18.930Z,18.70
2022-10-21T16:13:52.596Z,18.50
2022-10-21T16:16:25.000Z,18.20
2022-10-21T16:18:53.252Z,18.00
2022-10-21T16:21:22.531Z,17.90
2022-10-21T16:23:50.184Z,17.80
2022-10-21T16:26:25.433Z,17.70
2022-10-21T16:28:54.053Z,17.50
2022-10-21T16:31:21.591Z,17.40
2022-10-21T16:33:48.735Z,17.30
2022-10-21T16:36:18.255Z,17.30
2022-10-21T16:38:47.089Z,17.20
2022-10-21T16:41:17.021Z,17.20
2022-10-21T16:43:44.300Z,17.10
2022-10-21T16:46:33.227Z,17.00
2022-10-21T16:49:02.836Z,16.90
2022-10-21T16:51:30.761Z,16.80
2022-10-21T16:53:57.657Z,16.90
2022-10-21T16:56:24.909Z,16.90
2022-10-21T16:58:52.584Z,16.90
2022-10-21T17:01:22.847Z,16.90
2022-10-21T17:03:49.909Z,16.80
2022-10-21T17:06:22.508Z,16.80
2022-10-21T17:08:50.537Z,16.80
2022-10-21T17:11:34.295Z,16.80
2022-10-21T17:14:03.389Z,16.90
2022-10-21T17:16:30.320Z,16.80
2022-10-21T17:18:57.069Z,16.80
2022-10-21T17:21:25.382Z,16.70
2022-10-21T17:23:52.954Z,16.70
2022-10-21T17:26:20.617Z,16.70
2022-10-21T17:28:47.765Z,16.70
2022-10-21T17:31:16.863Z,16.60
2022-10-21T17:33:44.487Z,16.60
2022-10-21T17:36:11.762Z,16.60
2022-10-21T17:38:39.711Z,16.50
2022-10-21T17:41:06.881Z,16.50
2022-10-21T17:43:33.597Z,16.40
2022-10-21T17:46:00.791Z,16.40
2022-10-21T17:48:27.926Z,16.40
2022-10-21T17:50:56.396Z,16.50
2022-10-21T17:53:23.329Z,16.50
2022-10-21T17:55:58.123Z,16.40
2022-10-21T17:58:24.897Z,16.50
2022-10-21T18:00:52.389Z,16.40
2022-10-21T18:03:19.255Z,16.40
2022-10-21T18:05:46.830Z,16.40
2022-10-21T18:08:13.985Z,16.30
2022-10-21T18:10:40.800Z,16.20
2022-10-21T18:13:07.598Z,16.10
2022-10-21T18:15:37.395Z,16.10
2022-10-21T18:18:04.164Z,16.00
2022-10-21T18:20:30.853Z,15.90
2022-10-21T18:22:58.045Z,15.90
2022-10-21T18:25:24.727Z,15.80
2022-10-21T18:27:51.454Z,15.80
2022-10-21T18:30:18.799Z,15.70
2022-10-21T18:32:45.962Z,15.60
2022-10-21T18:35:12.673Z,15.70
2022-10-21T18:37:39.787Z,15.70
2022-10-21T18:40:07.900Z,15.60
2022-10-21T18:42:34.759Z,15.60
2022-10-21T18:45:01.470Z,15.60
2022-10-21T18:47:28.209Z,15.60
2022-10-21T18:49:55.393Z,15.80
2022-10-21T18:52:22.128Z,15.90
2022-10-21T18:54:48.897Z,15.90
2022-10-21T18:57:15.690Z,15.90
2022-10-21T18:59:42.455Z,15.80
2022-10-21T19:02:19.728Z,15.80
2022-10-21T19:04:47.391Z,15.70
2022-10-21T19:07:14.880Z,15.70
2022-10-21T19:09:41.818Z,15.60
2022-10-21T19:12:11.966Z,15.80
2022-10-21T19:14:41.234Z,15.80
2022-10-21T19:17:09.836Z,15.80
2022-10-21T19:19:39.314Z,15.80
2022-10-21T19:22:06.725Z,15.70
2022-10-21T19:24:33.863Z,15.70
2022-10-21T19:27:00.617Z,15.70
2022-10-21T19:29:27.496Z,15.80
2022-10-21T19:31:56.713Z,15.80
2022-10-21T19:34:26.757Z,15.70
2022-10-21T19:36:54.253Z,15.70
2022-10-21T19:39:21.318Z,15.60
2022-10-21T19:41:48.288Z,15.60
2022-10-21T19:44:15.178Z,15.60
2022-10-21T19:46:42.564Z,15.60
2022-10-21T19:49:12.908Z,15.60
2022-10-21T19:51:39.655Z,15.50
2022-10-21T19:54:08.292Z,15.50
2022-10-21T19:56:35.551Z,15.50
2022-10-21T19:59:03.483Z,15.50
2022-10-21T20:01:31.577Z,15.40
2022-10-21T20:04:00.611Z,15.40
2022-10-21T20:06:30.661Z,15.30
2022-10-21T20:08:59.627Z,15.30
2022-10-21T20:11:26.801Z,15.30
2022-10-21T20:13:53.907Z,15.30
2022-10-21T20:16:41.868Z,15.20
2022-10-21T20:19:10.428Z,15.20
2022-10-21T20:21:37.450Z,15.10
2022-10-21T20:24:05.198Z,15.20
2022-10-21T20:26:32.096Z,15.10
2022-10-21T20:29:00.974Z,15.10
2022-10-21T20:31:28.730Z,15.10
2022-10-21T20:33:56.624Z,15.10
2022-10-21T20:36:26.082Z,15.10
2022-10-21T20:38:55.206Z,15.10
2022-10-21T20:41:30.711Z,14.10
2022-10-21T20:43:58.405Z,15.60
2022-10-21T20:46:26.636Z,16.50
2022-10-21T20:48:54.641Z,16.00
2022-10-21T20:51:29.194Z,13.90
2022-10-21T20:54:03.094Z,14.40
2022-10-21T20:56:33.065Z,15.00
2022-10-21T20:59:00.397Z,14.70
2022-10-21T21:01:32.539Z,16.30
2022-10-21T21:04:06.745Z,14.90
2022-10-21T21:06:43.296Z,15.00
2022-10-21T21:14:26.339Z,13.50
2022-10-21T21:16:54.559Z,13.40
2022-10-21T21:19:21.626Z,14.80
2022-10-21T21:21:48.705Z,13.40
2022-10-21T21:24:15.852Z,14.80
2022-10-21T21:26:42.963Z,14.90
2022-10-21T21:29:10.649Z,14.90
2022-10-21T21:31:38.920Z,14.90
2022-10-21T21:34:07.033Z,14.90
2022-10-21T21:36:34.501Z,15.00
2022-10-21T21:39:01.732Z,14.90
2022-10-21T21:41:28.923Z,14.70
2022-10-21T21:43:56.928Z,14.70
2022-10-21T21:46:24.795Z,14.70
2022-10-21T21:48:59.549Z,14.80
2022-10-21T21:51:31.132Z,14.80
2022-10-21T21:53:59.133Z,14.80
2022-10-21T21:56:27.907Z,14.70
2022-10-21T21:58:56.080Z,14.70
2022-10-21T22:01:28.386Z,14.80
2022-10-21T22:03:56.021Z,14.80
2022-10-21T22:08:53.144Z,14.80
2022-10-21T22:11:25.071Z,14.70
2022-10-21T22:13:52.891Z,14.70
2022-10-21T22:16:22.267Z,14.60
2022-10-21T22:18:49.388Z,14.70
2022-10-21T22:21:17.841Z,14.60
2022-10-21T22:23:45.467Z,14.60
2022-10-21T22:26:14.077Z,14.50
2022-10-21T22:28:41.488Z,14.50
2022-10-21T22:31:11.589Z,14.50
2022-10-21T22:33:39.266Z,14.40
2022-10-21T22:36:06.831Z,14.30
2022-10-21T22:38:33.851Z,14.40
2022-10-21T22:41:02.445Z,14.50
2022-10-21T22:43:30.101Z,14.50
2022-10-21T22:46:05.162Z,14.60
2022-10-21T22:48:42.314Z,14.60
2022-10-21T22:51:09.214Z,14.60
2022-10-21T22:53:36.787Z,14.60
2022-10-21T22:56:06.809Z,14.60
2022-10-21T22:58:33.583Z,14.70
2022-10-21T23:01:05.569Z,14.70
2022-10-21T23:03:32.330Z,14.70
2022-10-21T23:05:59.062Z,14.70
2022-10-21T23:08:25.870Z,14.80
2022-10-21T23:10:52.841Z,14.80
2022-10-21T23:13:19.713Z,14.90
2022-10-21T23:15:49.759Z,14.90
2022-10-21T23:18:17.549Z,14.80
2022-10-21T23:20:44.492Z,14.80
2022-10-21T23:23:11.434Z,14.70
2022-10-21T23:25:38.281Z,14.80
2022-10-21T23:28:05.242Z,14.80
2022-10-21T23:30:32.109Z,14.70
2022-10-21T23:32:58.869Z,14.80
2022-10-21T23:35:26.185Z,14.80
2022-10-21T23:37:52.959Z,14.90
2022-10-21T23:40:19.708Z,14.90
2022-10-21T23:42:46.749Z,14.90
2022-10-21T23:45:13.533Z,14.80
2022-10-21T23:47:40.779Z,14.70
2022-10-21T23:50:08.874Z,14.60
2022-10-21T23:52:36.579Z,14.70
2022-10-21T23:55:05.227Z,14.70
2022-10-21T23:57:32.340Z,14.60
2022-10-21T23:59:59.125Z,14.50
